createdAt,value
2018-09-28T00:00:24.533Z,92.26
2018-09-28T00:01:24.526Z,91.64
2018-09-28T00:02:24.268Z,91.36
2018-09-28T00:03:24.513Z,92.07
2018-09-28T00:04:24.503Z,92.16
2018-09-28T00:05:24.496Z,92.12
2018-09-28T00:06:24.493Z,92.31
2018-09-28T00:07:24.482Z,91.74
2018-09-28T00:08:24.474Z,92.21
2018-09-28T00:09:24.470Z,91.74
2018-09-28T00:10:24.208Z,91.83
2018-09-28T00:11:24.457Z,91.74
2018-09-28T00:12:24.444Z,92.31
2018-09-28T00:13:24.436Z,92.12
2018-09-28T00:14:24.484Z,91.83
2018-09-28T00:15:24.420Z,92.12
2018-09-28T00:16:24.419Z,92.12
2018-09-28T00:17:24.157Z,91.93
2018-09-28T00:18:24.148Z,91.74
2018-09-28T00:19:24.140Z,92.02
2018-09-28T00:20:24.386Z,91.83
2018-09-28T00:21:24.380Z,91.93
2018-09-28T00:22:24.369Z,92.12
2018-09-28T00:23:24.365Z,91.93
2018-09-28T00:24:24.355Z,92.12
2018-09-28T00:25:24.095Z,92.02
2018-09-28T00:26:24.343Z,92.02
2018-09-28T00:27:24.342Z,91.83
2018-09-28T00:28:24.330Z,91.74
2018-09-28T00:29:24.316Z,91.74
2018-09-28T00:30:24.312Z,91.93
2018-09-28T00:31:24.050Z,91.83
2018-09-28T00:32:24.042Z,92.02
2018-09-28T00:33:24.036Z,91.64
2018-09-28T00:34:24.293Z,91.88
2018-09-28T00:35:24.271Z,91.55
2018-09-28T00:36:24.263Z,91.93
2018-09-28T00:37:24.308Z,91.98
2018-09-28T00:38:24.250Z,91.78
2018-09-28T00:39:24.245Z,91.88
2018-09-28T00:40:24.234Z,91.69
2018-09-28T00:41:24.224Z,91.78
2018-09-28T00:42:24.217Z,91.69
2018-09-28T00:43:24.210Z,91.69
2018-09-28T00:44:24.203Z,91.88
2018-09-28T00:45:24.202Z,91.98
2018-09-28T00:46:24.187Z,91.88
2018-09-28T00:47:23.926Z,91.98
2018-09-28T00:48:24.176Z,91.6
2018-09-28T00:49:24.162Z,91.78
2018-09-28T00:50:24.155Z,91.69
2018-09-28T00:51:24.148Z,91.5
2018-09-28T00:52:24.138Z,91.6
2018-09-28T00:53:24.132Z,91.69
2018-09-28T00:54:24.123Z,91.88
2018-09-28T00:55:24.115Z,91.78
2018-09-28T00:56:24.108Z,91.5
2018-09-28T00:57:24.099Z,91.69
2018-09-28T00:58:24.092Z,91.69
2018-09-28T00:59:24.083Z,91.78
2018-09-28T01:00:24.083Z,91.6
2018-09-28T01:01:24.073Z,91.98
2018-09-28T01:02:24.059Z,91.98
2018-09-28T01:03:24.050Z,91.5
2018-09-28T01:04:24.049Z,91.78
2018-09-28T01:05:24.035Z,91.6
2018-09-28T01:06:23.776Z,91.98
2018-09-28T01:07:24.019Z,91.69
2018-09-28T01:08:24.017Z,91.69
2018-09-28T01:09:24.005Z,91.88
2018-09-28T01:10:23.999Z,91.69
2018-09-28T01:11:23.736Z,91.74
2018-09-28T01:12:23.728Z,91.98
2018-09-28T01:13:23.980Z,91.98
2018-09-28T01:14:23.965Z,91.74
2018-09-28T01:15:23.704Z,91.74
2018-09-28T01:16:23.952Z,91.83
2018-09-28T01:17:23.939Z,92.03
2018-09-28T01:18:23.938Z,92.41
2018-09-28T01:19:23.934Z,91.74
2018-09-28T01:20:23.927Z,92.03
2018-09-28T01:21:23.908Z,91.83
2018-09-28T01:22:23.898Z,92.12
2018-09-28T01:23:23.890Z,91.74
2018-09-28T01:24:23.881Z,92.41
2018-09-28T01:25:23.874Z,92.32
2018-09-28T01:26:23.869Z,92.22
2018-09-28T01:27:23.865Z,92.41
2018-09-28T01:28:23.601Z,92.22
2018-09-28T01:29:23.846Z,92.22
2018-09-28T01:30:23.851Z,92.32
2018-09-28T01:31:23.826Z,91.93
2018-09-28T01:32:23.817Z,91.93
2018-09-28T01:33:23.810Z,92.32
2018-09-28T01:34:23.804Z,92.6
2018-09-28T01:35:23.540Z,92.5
2018-09-28T01:36:23.783Z,92.6
2018-09-28T01:37:23.775Z,92.41
2018-09-28T01:38:23.770Z,92.5
2018-09-28T01:39:23.760Z,92.5
2018-09-28T01:40:23.751Z,92.5
2018-09-28T01:41:23.491Z,92.41
2018-09-28T01:42:23.734Z,92.5
2018-09-28T01:43:23.729Z,92.5
2018-09-28T01:44:23.719Z,92.6
2018-09-28T01:45:23.458Z,92.32
2018-09-28T01:46:23.456Z,92.41
2018-09-28T01:47:23.692Z,92.41
2018-09-28T01:48:23.684Z,92.41
2018-09-28T01:49:23.674Z,92.32
2018-09-28T01:50:23.670Z,92.32
2018-09-28T01:51:23.658Z,92.32
2018-09-28T01:52:23.649Z,92.5
2018-09-28T01:53:23.644Z,92.32
2018-09-28T01:54:23.633Z,92.5
2018-09-28T01:55:23.625Z,92.32
2018-09-28T01:56:23.623Z,92.5
2018-09-28T01:57:23.610Z,92.5
2018-09-28T01:58:23.600Z,92.41
2018-09-28T01:59:23.595Z,92.46
2018-09-28T02:00:23.583Z,92.36
2018-09-28T02:01:23.576Z,92.27
2018-09-28T02:02:23.569Z,92.27
2018-09-28T02:03:23.557Z,92.17
2018-09-28T02:04:23.550Z,92.36
2018-09-28T02:05:23.287Z,92.46
2018-09-28T02:06:23.531Z,92.36
2018-09-28T02:07:23.272Z,91.98
2018-09-28T02:08:23.262Z,92.27
2018-09-28T02:09:23.514Z,92.17
2018-09-28T02:10:23.499Z,92.46
2018-09-28T02:11:23.237Z,92.36
2018-09-28T02:12:23.547Z,92.17
2018-09-28T02:13:23.473Z,92.27
2018-09-28T02:14:23.211Z,92.36
2018-09-28T02:15:23.203Z,92.17
2018-09-28T02:16:23.450Z,92.17
2018-09-28T02:17:23.198Z,92.27
2018-09-28T02:18:23.432Z,92.17
2018-09-28T02:19:23.169Z,92.17
2018-09-28T02:20:23.431Z,92.17
2018-09-28T02:21:23.404Z,92.27
2018-09-28T02:22:23.449Z,92.65
2018-09-28T02:23:23.387Z,92.65
2018-09-28T02:24:23.381Z,92.74
2018-09-28T02:25:23.368Z,92.84
2018-09-28T02:26:23.361Z,92.93
2018-09-28T02:27:23.351Z,92.27
2018-09-28T02:28:23.352Z,92.93
2018-09-28T02:29:23.083Z,92.74
2018-09-28T02:30:23.074Z,92.74
2018-09-28T02:31:23.065Z,92.93
2018-09-28T02:32:23.310Z,92.46
2018-09-28T02:33:23.305Z,92.93
2018-09-28T02:34:23.291Z,92.17
2018-09-28T02:35:23.284Z,92.74
2018-09-28T02:36:23.275Z,93.03
2018-09-28T02:37:23.263Z,92.27
2018-09-28T02:38:23.257Z,92.17
2018-09-28T02:39:23.251Z,92.08
2018-09-28T02:40:22.987Z,92.17
2018-09-28T02:41:23.240Z,92.36
2018-09-28T02:42:23.222Z,92.17
2018-09-28T02:43:23.224Z,92.36
2018-09-28T02:44:23.204Z,92.27
2018-09-28T02:45:23.198Z,92.17
2018-09-28T02:46:23.185Z,92.36
2018-09-28T02:47:23.177Z,92.17
2018-09-28T02:48:23.167Z,92.27
2018-09-28T02:49:23.159Z,92.17
2018-09-28T02:50:23.151Z,92.36
2018-09-28T02:51:23.145Z,92.55
2018-09-28T02:52:23.134Z,92.65
2018-09-28T02:53:23.133Z,92.55
2018-09-28T02:54:23.116Z,92.65
2018-09-28T02:55:23.115Z,92.74
2018-09-28T02:56:23.099Z,92.65
2018-09-28T02:57:23.090Z,92.08
2018-09-28T02:58:23.088Z,91.98
2018-09-28T02:59:23.077Z,92.17
2018-09-28T03:00:23.066Z,91.98
2018-09-28T03:01:23.060Z,92.55
2018-09-28T03:02:23.046Z,92.08
2018-09-28T03:03:22.785Z,92.08
2018-09-28T03:04:23.033Z,92.46
2018-09-28T03:05:23.029Z,92.65
2018-09-28T03:06:23.287Z,92.65
2018-09-28T03:07:23.002Z,92.84
2018-09-28T03:08:22.992Z,92.84
2018-09-28T03:09:22.990Z,92.17
2018-09-28T03:10:22.976Z,92.36
2018-09-28T03:11:22.972Z,92.36
2018-09-28T03:12:22.708Z,93.03
2018-09-28T03:13:22.950Z,93.17
2018-09-28T03:14:22.692Z,92.88
2018-09-28T03:15:22.936Z,93.17
2018-09-28T03:16:22.931Z,92.98
2018-09-28T03:17:22.918Z,92.88
2018-09-28T03:18:22.908Z,93.08
2018-09-28T03:19:22.900Z,92.5
2018-09-28T03:20:22.893Z,92.69
2018-09-28T03:21:22.630Z,92.69
2018-09-28T03:22:22.874Z,92.69
2018-09-28T03:23:22.865Z,92.69
2018-09-28T03:24:22.857Z,92.69
2018-09-28T03:25:22.855Z,92.88
2018-09-28T03:26:22.840Z,92.98
2018-09-28T03:27:22.833Z,93.08
2018-09-28T03:28:22.823Z,92.79
2018-09-28T03:29:22.814Z,92.5
2018-09-28T03:30:22.811Z,92.88
2018-09-28T03:31:22.812Z,92.98
2018-09-28T03:32:22.788Z,92.12
2018-09-28T03:33:22.782Z,92.5
2018-09-28T03:34:22.772Z,92.22
2018-09-28T03:35:22.763Z,92.5
2018-09-28T03:36:22.754Z,92.22
2018-09-28T03:37:22.749Z,92.41
2018-09-28T03:38:22.741Z,92.88
2018-09-28T03:39:22.735Z,92.98
2018-09-28T03:40:22.473Z,92.5
2018-09-28T03:41:22.721Z,92.41
2018-09-28T03:42:22.724Z,91.93
2018-09-28T03:43:22.698Z,92.88
2018-09-28T03:44:22.689Z,92.5
2018-09-28T03:45:22.688Z,92.22
2018-09-28T03:46:22.673Z,92.12
2018-09-28T03:47:22.411Z,92.12
2018-09-28T03:48:22.672Z,92.41
2018-09-28T03:49:22.647Z,92.41
2018-09-28T03:50:22.637Z,91.83
2018-09-28T03:51:22.632Z,92.32
2018-09-28T03:52:22.623Z,92.22
2018-09-28T03:53:22.613Z,92.5
2018-09-28T03:54:22.607Z,92.22
2018-09-28T03:55:22.662Z,92.6
2018-09-28T03:56:22.589Z,92.5
2018-09-28T03:57:22.580Z,92.5
2018-09-28T03:58:22.573Z,92.5
2018-09-28T03:59:22.567Z,92.6
2018-09-28T04:00:22.560Z,92.41
2018-09-28T04:01:22.545Z,92.5
2018-09-28T04:02:22.538Z,92.5
2018-09-28T04:03:22.530Z,92.41
2018-09-28T04:04:22.771Z,92.32
2018-09-28T04:05:22.514Z,92.5
2018-09-28T04:06:22.520Z,92.41
2018-09-28T04:07:22.503Z,92.5
2018-09-28T04:08:22.492Z,92.69
2018-09-28T04:09:22.481Z,92.5
2018-09-28T04:10:22.476Z,92.6
2018-09-28T04:11:22.464Z,92.6
2018-09-28T04:12:22.457Z,92.41
2018-09-28T04:13:22.194Z,92.69
2018-09-28T04:14:22.437Z,92.32
2018-09-28T04:15:22.429Z,92.69
2018-09-28T04:16:22.420Z,92.5
2018-09-28T04:17:22.415Z,92.6
2018-09-28T04:18:22.406Z,92.5
2018-09-28T04:19:22.397Z,92.6
2018-09-28T04:20:22.396Z,92.6
2018-09-28T04:21:22.387Z,92.41
2018-09-28T04:22:22.371Z,92.32
2018-09-28T04:23:22.361Z,92.79
2018-09-28T04:24:22.353Z,92.41
2018-09-28T04:25:22.346Z,92.5
2018-09-28T04:26:22.349Z,92.6
2018-09-28T04:27:22.334Z,92.5
2018-09-28T04:28:22.318Z,92.69
2018-09-28T04:29:22.310Z,92.32
2018-09-28T04:30:22.302Z,92.69
2018-09-28T04:31:22.049Z,92.5
2018-09-28T04:32:22.293Z,92.41
2018-09-28T04:33:22.277Z,92.5
2018-09-28T04:34:22.265Z,92.41
2018-09-28T04:35:22.258Z,92.41
2018-09-28T04:36:22.255Z,92.5
2018-09-28T04:37:22.242Z,92.5
2018-09-28T04:38:22.234Z,92.41
2018-09-28T04:39:22.227Z,92.41
2018-09-28T04:40:22.218Z,92.12
2018-09-28T04:41:22.212Z,92.41
2018-09-28T04:42:22.200Z,92.41
2018-09-28T04:43:21.940Z,92.41
2018-09-28T04:44:21.931Z,92.5
2018-09-28T04:45:22.439Z,92.36
2018-09-28T04:46:22.170Z,92.36
2018-09-28T04:47:22.159Z,92.08
2018-09-28T04:48:22.148Z,92.55
2018-09-28T04:49:22.140Z,93.12
2018-09-28T04:50:22.135Z,92.36
2018-09-28T04:51:22.123Z,92.27
2018-09-28T04:52:22.124Z,92.93
2018-09-28T04:53:22.113Z,92.55
2018-09-28T04:54:22.096Z,92.55
2018-09-28T04:55:22.089Z,92.65
2018-09-28T04:56:22.085Z,93.12
2018-09-28T04:57:22.074Z,92.55
2018-09-28T04:58:22.063Z,92.74
2018-09-28T04:59:21.802Z,92.46
2018-09-28T05:00:22.045Z,92.55
2018-09-28T05:01:22.036Z,92.46
2018-09-28T05:02:22.029Z,92.65
2018-09-28T05:03:22.062Z,92.36
2018-09-28T05:04:22.011Z,93.03
2018-09-28T05:05:21.750Z,93.03
2018-09-28T05:06:21.742Z,93.22
2018-09-28T05:07:21.733Z,92.93
2018-09-28T05:08:21.976Z,92.93
2018-09-28T05:09:21.967Z,93.03
2018-09-28T05:10:21.712Z,92.93
2018-09-28T05:11:21.953Z,92.93
2018-09-28T05:12:21.951Z,92.93
2018-09-28T05:13:21.942Z,93.12
2018-09-28T05:14:21.928Z,92.84
2018-09-28T05:15:21.916Z,92.84
2018-09-28T05:16:21.907Z,92.93
2018-09-28T05:17:21.900Z,92.93
2018-09-28T05:18:21.894Z,93.03
2018-09-28T05:19:21.992Z,92.93
2018-09-28T05:20:21.875Z,92.74
2018-09-28T05:21:21.865Z,93.03
2018-09-28T05:22:21.857Z,92.93
2018-09-28T05:23:21.850Z,92.93
2018-09-28T05:24:21.839Z,92.55
2018-09-28T05:25:22.007Z,92.46
2018-09-28T05:26:21.823Z,92.65
2018-09-28T05:27:21.813Z,92.41
2018-09-28T05:28:21.810Z,93.27
2018-09-28T05:29:21.796Z,92.98
2018-09-28T05:30:21.790Z,92.22
2018-09-28T05:31:22.135Z,92.41
2018-09-28T05:32:22.186Z,92.6
2018-09-28T05:33:21.763Z,92.6
2018-09-28T05:34:21.756Z,92.5
2018-09-28T05:35:21.497Z,92.26
2018-09-28T05:36:21.741Z,91.98
2018-09-28T05:37:21.973Z,91.5
2018-09-28T05:38:21.724Z,91.69
2018-09-28T05:39:21.468Z,91.64
2018-09-28T05:40:21.710Z,91.45
2018-09-28T05:41:21.699Z,90.69
2018-09-28T05:42:21.699Z,90.78
2018-09-28T05:43:21.685Z,90.97
2018-09-28T05:44:21.679Z,90.54
2018-09-28T05:45:21.672Z,90.16
2018-09-28T05:46:21.732Z,90.25
2018-09-28T05:47:21.655Z,89.78
2018-09-28T05:48:21.649Z,89.53
2018-09-28T05:49:21.648Z,89.34
2018-09-28T05:50:21.638Z,88.96
2018-09-28T05:51:21.747Z,88.68
2018-09-28T05:52:21.621Z,88.53
2018-09-28T05:53:21.619Z,88.15
2018-09-28T05:54:21.609Z,88.43
2018-09-28T05:55:21.349Z,88.43
2018-09-28T05:56:21.343Z,87.66
2018-09-28T05:57:21.598Z,87.52
2018-09-28T05:58:21.611Z,87.52
2018-09-28T05:59:21.574Z,87.81
2018-09-28T06:00:21.570Z,87.23
2018-09-28T06:01:21.312Z,87.52
2018-09-28T06:02:21.555Z,86.94
2018-09-28T06:03:21.549Z,87.33
2018-09-28T06:04:21.545Z,87.23
2018-09-28T06:05:21.574Z,86.94
2018-09-28T06:06:21.535Z,86.85
2018-09-28T06:07:21.525Z,86.94
2018-09-28T06:08:21.520Z,86.85
2018-09-28T06:09:21.526Z,86.85
2018-09-28T06:10:21.511Z,86.76
2018-09-28T06:11:21.498Z,86.76
2018-09-28T06:12:21.495Z,86.57
2018-09-28T06:13:21.487Z,86.8
2018-09-28T06:14:21.240Z,86.8
2018-09-28T06:15:21.479Z,86.9
2018-09-28T06:16:21.219Z,86.61
2018-09-28T06:17:21.463Z,86.8
2018-09-28T06:18:21.509Z,86.7
2018-09-28T06:19:21.449Z,86.8
2018-09-28T06:20:21.462Z,86.8
2018-09-28T06:21:21.246Z,86.7
2018-09-28T06:22:21.429Z,86.8
2018-09-28T06:23:21.425Z,86.51
2018-09-28T06:24:21.166Z,86.61
2018-09-28T06:25:21.412Z,86.8
2018-09-28T06:26:21.407Z,87.08
2018-09-28T06:27:21.398Z,87.18
2018-09-28T06:28:21.391Z,87.37
2018-09-28T06:29:21.387Z,86.8
2018-09-28T06:30:21.559Z,87.18
2018-09-28T06:31:21.376Z,87.18
2018-09-28T06:32:21.368Z,87.18
2018-09-28T06:33:21.364Z,86.61
2018-09-28T06:34:21.362Z,86.99
2018-09-28T06:35:21.348Z,87.47
2018-09-28T06:36:21.664Z,87.18
2018-09-28T06:37:21.335Z,87.47
2018-09-28T06:38:21.337Z,87.56
2018-09-28T06:39:21.334Z,87.56
2018-09-28T06:40:21.320Z,87.37
2018-09-28T06:41:21.314Z,87.56
2018-09-28T06:42:21.376Z,87.37
2018-09-28T06:43:21.048Z,87.37
2018-09-28T06:44:21.040Z,87.27
2018-09-28T06:45:21.291Z,87.27
2018-09-28T06:46:21.283Z,87.37
2018-09-28T06:47:21.274Z,87.56
2018-09-28T06:48:21.361Z,87.37
2018-09-28T06:49:21.264Z,87.08
2018-09-28T06:50:21.258Z,87.08
2018-09-28T06:51:21.387Z,87.47
2018-09-28T06:52:21.243Z,87.08
2018-09-28T06:53:20.984Z,86.99
2018-09-28T06:54:21.374Z,87.18
2018-09-28T06:55:20.973Z,87.27
2018-09-28T06:56:21.223Z,88.09
2018-09-28T06:57:20.965Z,87.27
2018-09-28T06:58:21.416Z,87.37
2018-09-28T06:59:21.206Z,88.13
2018-09-28T07:00:21.051Z,87.56
2018-09-28T07:01:20.938Z,87.7
2018-09-28T07:02:21.182Z,87.76
2018-09-28T07:03:21.177Z,87.8
2018-09-28T07:04:21.171Z,87.61
2018-09-28T07:05:21.169Z,87.8
2018-09-28T07:06:21.415Z,87.7
2018-09-28T07:07:21.155Z,87.7
2018-09-28T07:08:21.207Z,87.7
2018-09-28T07:09:21.352Z,87.7
2018-09-28T07:10:21.135Z,87.7
2018-09-28T07:11:21.132Z,87.8
2018-09-28T07:12:21.325Z,87.7
2018-09-28T07:13:21.165Z,87.8
2018-09-28T07:14:21.113Z,87.41
2018-09-28T07:15:21.107Z,88.09
2018-09-28T07:16:21.231Z,87.9
2018-09-28T07:17:21.096Z,87.08
2018-09-28T07:18:21.336Z,87.27
2018-09-28T07:19:21.081Z,87.65
2018-09-28T07:20:21.081Z,86.98
2018-09-28T07:21:21.070Z,86.31
2018-09-28T07:22:21.065Z,86.21
2018-09-28T07:23:21.060Z,86.5
2018-09-28T07:24:21.223Z,86.02
2018-09-28T07:25:21.068Z,85.74
2018-09-28T07:26:21.040Z,85.45
2018-09-28T07:27:20.789Z,84.68
2018-09-28T07:28:20.780Z,84.49
2018-09-28T07:29:21.029Z,84.78
2018-09-28T07:30:21.201Z,84.97
2018-09-28T07:31:21.015Z,85.16
2018-09-28T07:32:21.010Z,84.97
2018-09-28T07:33:21.006Z,85.25
2018-09-28T07:34:21.002Z,85.35
2018-09-28T07:35:20.743Z,84.2
2018-09-28T07:36:21.431Z,84.68
2018-09-28T07:37:20.835Z,85.06
2018-09-28T07:38:20.727Z,84.88
2018-09-28T07:39:20.974Z,84.3
2018-09-28T07:40:20.969Z,84.3
2018-09-28T07:41:20.963Z,84.49
2018-09-28T07:42:21.068Z,84.2
2018-09-28T07:43:20.700Z,83.92
2018-09-28T07:44:20.953Z,83.44
2018-09-28T07:45:20.945Z,83.82
2018-09-28T07:46:20.686Z,82.96
2018-09-28T07:47:20.681Z,83.53
2018-09-28T07:48:21.239Z,83.44
2018-09-28T07:49:21.083Z,83.53
2018-09-28T07:50:20.921Z,83.11
2018-09-28T07:51:20.660Z,81.9
2018-09-28T07:52:20.655Z,81.29
2018-09-28T07:53:20.902Z,81.57
2018-09-28T07:54:20.897Z,81.96
2018-09-28T07:55:20.643Z,81.2
2018-09-28T07:56:20.888Z,80.81
2018-09-28T07:57:20.887Z,80.9
2018-09-28T07:58:20.880Z,80.81
2018-09-28T07:59:20.872Z,79.75
2018-09-28T08:00:20.617Z,79.85
2018-09-28T08:01:20.863Z,80.33
2018-09-28T08:02:20.857Z,80.33
2018-09-28T08:03:20.601Z,80.24
2018-09-28T08:04:20.850Z,80.04
2018-09-28T08:05:20.842Z,80.14
2018-09-28T08:06:20.585Z,79.85
2018-09-28T08:07:20.580Z,80.04
2018-09-28T08:08:20.577Z,80.33
2018-09-28T08:09:20.826Z,80.62
2018-09-28T08:10:20.822Z,80.71
2018-09-28T08:11:20.563Z,80.38
2018-09-28T08:12:20.808Z,80.43
2018-09-28T08:13:20.804Z,80.04
2018-09-28T08:14:20.795Z,80.14
2018-09-28T08:15:20.793Z,80.24
2018-09-28T08:16:20.533Z,79.91
2018-09-28T08:17:20.778Z,80.58
2018-09-28T08:18:20.523Z,80.38
2018-09-28T08:19:20.771Z,80.38
2018-09-28T08:20:20.766Z,80.1
2018-09-28T08:21:20.759Z,80.58
2018-09-28T08:22:20.753Z,80.29
2018-09-28T08:23:20.581Z,80
2018-09-28T08:24:20.744Z,80.1
2018-09-28T08:25:20.485Z,80.52
2018-09-28T08:26:20.734Z,79.85
2018-09-28T08:27:20.476Z,80.14
2018-09-28T08:28:20.470Z,80.33
2018-09-28T08:29:20.992Z,80.62
2018-09-28T08:30:20.466Z,80.14
2018-09-28T08:31:20.712Z,80.52
2018-09-28T08:32:20.700Z,79.95
2018-09-28T08:33:20.695Z,79.47
2018-09-28T08:34:20.724Z,79.57
2018-09-28T08:35:20.686Z,79.57
2018-09-28T08:36:20.918Z,79.41
2018-09-28T08:37:20.678Z,78.74
2018-09-28T08:38:20.672Z,78.27
2018-09-28T08:39:20.414Z,78.93
2018-09-28T08:40:20.661Z,77.5
2018-09-28T08:41:20.659Z,77.59
2018-09-28T08:42:20.654Z,78.07
2018-09-28T08:43:20.394Z,76.73
2018-09-28T08:44:20.647Z,76.25
2018-09-28T08:45:20.638Z,75.58
2018-09-28T08:46:20.381Z,73.28
2018-09-28T08:47:20.376Z,72.23
2018-09-28T08:48:20.626Z,71.56
2018-09-28T08:49:20.778Z,71.56
2018-09-28T08:50:20.613Z,70.7
2018-09-28T08:51:20.609Z,70.89
2018-09-28T08:52:20.606Z,71.27
2018-09-28T08:53:20.601Z,71.46
2018-09-28T08:54:20.596Z,71.27
2018-09-28T08:55:20.339Z,71.62
2018-09-28T08:56:20.335Z,71.42
2018-09-28T08:57:20.328Z,71.42
2018-09-28T08:58:20.575Z,71.52
2018-09-28T08:59:20.571Z,71.33
2018-09-28T09:00:20.568Z,70.89
2018-09-28T09:01:20.560Z,71.17
2018-09-28T09:02:20.757Z,71.66
2018-09-28T09:03:20.552Z,71.66
2018-09-28T09:04:20.547Z,71.94
2018-09-28T09:05:20.544Z,71.56
2018-09-28T09:06:20.541Z,71.84
2018-09-28T09:07:20.537Z,71.59
2018-09-28T09:08:20.526Z,71.75
2018-09-28T09:09:20.522Z,71.94
2018-09-28T09:10:20.517Z,72.94
2018-09-28T09:11:20.512Z,72.45
2018-09-28T09:12:20.508Z,72.9
2018-09-28T09:13:20.503Z,71.69
2018-09-28T09:14:20.245Z,72.55
2018-09-28T09:15:20.244Z,71.59
2018-09-28T09:16:20.488Z,71.31
2018-09-28T09:17:20.486Z,71.78
2018-09-28T09:18:20.624Z,72.17
2018-09-28T09:19:20.473Z,70.96
2018-09-28T09:20:20.468Z,70.19
2018-09-28T09:21:20.464Z,68.5
2018-09-28T09:22:20.466Z,64.28
2018-09-28T09:23:20.459Z,63.6
2018-09-28T09:24:20.451Z,62.84
2018-09-28T09:25:20.447Z,62.39
2018-09-28T09:26:20.192Z,60.95
2018-09-28T09:27:20.439Z,60.66
2018-09-28T09:28:20.435Z,60.75
2018-09-28T09:29:20.179Z,61.43
2018-09-28T09:30:20.570Z,60.18
2018-09-28T09:31:20.422Z,60.28
2018-09-28T09:32:20.423Z,60.28
2018-09-28T09:33:20.417Z,59.7
2018-09-28T09:34:20.411Z,59.32
2018-09-28T09:35:20.409Z,59.12
2018-09-28T09:36:20.414Z,59.03
2018-09-28T09:37:20.407Z,59.12
2018-09-28T09:38:20.399Z,59.61
2018-09-28T09:39:20.395Z,59.7
2018-09-28T09:40:20.391Z,60.38
2018-09-28T09:41:20.145Z,59.89
2018-09-28T09:42:20.384Z,60.28
2018-09-28T09:43:20.382Z,59.54
2018-09-28T09:44:20.379Z,58.55
2018-09-28T09:45:20.375Z,58
2018-09-28T09:46:20.374Z,58.45
2018-09-28T09:47:20.371Z,58.64
2018-09-28T09:48:20.168Z,57.97
2018-09-28T09:49:20.366Z,58.14
2018-09-28T09:50:20.363Z,58.23
2018-09-28T09:51:20.357Z,58.81
2018-09-28T09:52:20.353Z,58.42
2018-09-28T09:53:20.348Z,58.71
2018-09-28T09:54:20.347Z,57.85
2018-09-28T09:55:20.342Z,58.33
2018-09-28T09:56:20.341Z,57.95
2018-09-28T09:57:20.336Z,57.65
2018-09-28T09:58:20.334Z,57.37
2018-09-28T09:59:20.329Z,57.08
2018-09-28T10:00:20.327Z,57.46
2018-09-28T10:01:20.332Z,57.75
2018-09-28T10:02:20.316Z,58.36
2018-09-28T10:03:20.315Z,56.92
2018-09-28T10:04:20.314Z,56.34
2018-09-28T10:05:20.308Z,56.34
2018-09-28T10:06:20.305Z,55.29
2018-09-28T10:07:20.302Z,55.19
2018-09-28T10:08:20.307Z,55.29
2018-09-28T10:09:20.045Z,56.24
2018-09-28T10:10:20.292Z,55
2018-09-28T10:11:20.291Z,54.9
2018-09-28T10:12:20.521Z,55.12
2018-09-28T10:13:20.285Z,54.06
2018-09-28T10:14:20.284Z,54.23
2018-09-28T10:15:20.277Z,55.1
2018-09-28T10:16:20.280Z,55.67
2018-09-28T10:17:20.282Z,55.29
2018-09-28T10:18:20.275Z,56.15
2018-09-28T10:19:20.413Z,56.05
2018-09-28T10:20:20.263Z,56.24
2018-09-28T10:21:20.293Z,56.05
2018-09-28T10:22:20.255Z,56.05
2018-09-28T10:23:20.251Z,55.57
2018-09-28T10:24:19.995Z,56.15
2018-09-28T10:25:20.243Z,56.89
2018-09-28T10:26:20.241Z,56.89
2018-09-28T10:27:20.312Z,56.98
2018-09-28T10:28:20.160Z,57.11
2018-09-28T10:29:19.980Z,57.68
2018-09-28T10:30:20.226Z,57.5
2018-09-28T10:31:20.223Z,57.68
2018-09-28T10:32:20.225Z,57.5
2018-09-28T10:33:20.222Z,57.68
2018-09-28T10:34:20.346Z,57.4
2018-09-28T10:35:20.209Z,56.73
2018-09-28T10:36:20.207Z,55.77
2018-09-28T10:37:20.209Z,55.67
2018-09-28T10:38:20.210Z,53.94
2018-09-28T10:39:19.998Z,54.42
2018-09-28T10:40:20.382Z,53.75
2018-09-28T10:41:20.323Z,53.17
2018-09-28T10:42:20.190Z,53.11
2018-09-28T10:43:20.181Z,52.14
2018-09-28T10:44:20.181Z,52.24
2018-09-28T10:45:20.260Z,52.14
2018-09-28T10:46:20.175Z,52.05
2018-09-28T10:47:20.175Z,51.28
2018-09-28T10:48:20.163Z,51.69
2018-09-28T10:49:20.261Z,51.76
2018-09-28T10:50:20.161Z,52.24
2018-09-28T10:51:20.279Z,52.14
2018-09-28T10:52:20.837Z,51.28
2018-09-28T10:53:19.896Z,52.05
2018-09-28T10:54:20.187Z,52.14
2018-09-28T10:55:20.149Z,51.18
2018-09-28T10:56:20.137Z,51.37
2018-09-28T10:57:20.188Z,51.47
2018-09-28T10:58:20.264Z,51.18
2018-09-28T10:59:20.134Z,51.18
2018-09-28T11:00:20.157Z,50.44
2018-09-28T11:01:19.870Z,50.42
2018-09-28T11:02:20.118Z,50.51
2018-09-28T11:03:20.282Z,50.9
2018-09-28T11:04:20.212Z,50.73
2018-09-28T11:05:20.108Z,51.31
2018-09-28T11:06:20.104Z,51.11
2018-09-28T11:07:19.849Z,50.92
2018-09-28T11:08:20.266Z,49.29
2018-09-28T11:09:20.203Z,48.71
2018-09-28T11:10:20.236Z,49.26
2018-09-28T11:11:20.090Z,50.13
2018-09-28T11:12:20.083Z,49.65
2018-09-28T11:13:20.130Z,50.32
2018-09-28T11:14:20.081Z,50.1
2018-09-28T11:15:20.117Z,50.68
2018-09-28T11:16:19.818Z,50.68
2018-09-28T11:17:20.066Z,51.16
2018-09-28T11:18:20.068Z,51.45
2018-09-28T11:19:20.060Z,51.93
2018-09-28T11:20:20.054Z,52.5
2018-09-28T11:21:20.220Z,52.5
2018-09-28T11:22:20.053Z,52.57
2018-09-28T11:23:19.792Z,52.57
2018-09-28T11:24:19.787Z,52.57
2018-09-28T11:25:20.045Z,52.28
2018-09-28T11:26:20.076Z,52.48
2018-09-28T11:27:20.151Z,52.28
2018-09-28T11:28:20.022Z,53.44
2018-09-28T11:29:20.026Z,52.38
2018-09-28T11:30:20.021Z,53.34
2018-09-28T11:31:19.762Z,53.05
2018-09-28T11:32:20.007Z,52.76
2018-09-28T11:33:20.124Z,53.44
2018-09-28T11:34:19.748Z,52.38
2018-09-28T11:35:19.997Z,53.05
2018-09-28T11:36:19.997Z,53.15
2018-09-28T11:37:19.986Z,52.38
2018-09-28T11:38:19.981Z,52.95
2018-09-28T11:39:20.104Z,52
2018-09-28T11:40:19.973Z,52.38
2018-09-28T11:41:19.717Z,52.45
2018-09-28T11:42:19.965Z,52.16
2018-09-28T11:43:19.752Z,52.26
2018-09-28T11:44:19.956Z,52.36
2018-09-28T11:45:20.288Z,52.55
2018-09-28T11:46:19.953Z,52.45
2018-09-28T11:47:19.944Z,52.16
2018-09-28T11:48:19.687Z,52.19
2018-09-28T11:49:20.046Z,52.09
2018-09-28T11:50:19.935Z,51.9
2018-09-28T11:51:20.009Z,52.02
2018-09-28T11:52:19.927Z,51.25
2018-09-28T11:53:19.966Z,51.64
2018-09-28T11:54:19.913Z,51.54
2018-09-28T11:55:19.912Z,50.49
2018-09-28T11:56:19.904Z,50.58
2018-09-28T11:57:20.019Z,50.78
2018-09-28T11:58:19.897Z,51.54
2018-09-28T11:59:19.938Z,51.54
2018-09-28T12:00:19.897Z,51.35
2018-09-28T12:01:19.885Z,51.64
2018-09-28T12:02:19.884Z,51.16
2018-09-28T12:03:19.999Z,50.78
2018-09-28T12:04:19.872Z,50.32
2018-09-28T12:05:19.619Z,49.65
2018-09-28T12:06:20.040Z,49.17
2018-09-28T12:07:19.863Z,49.07
2018-09-28T12:08:19.857Z,48.59
2018-09-28T12:09:19.930Z,48.79
2018-09-28T12:10:19.850Z,48.3
2018-09-28T12:11:19.845Z,47.63
2018-09-28T12:12:19.957Z,48.04
2018-09-28T12:13:19.891Z,48.43
2018-09-28T12:14:19.833Z,48.61
2018-09-28T12:15:20.025Z,48.43
2018-09-28T12:16:19.830Z,47.66
2018-09-28T12:17:19.824Z,46.89
2018-09-28T12:18:19.938Z,46.69
2018-09-28T12:19:19.824Z,45.95
2018-09-28T12:20:19.814Z,46.59
2018-09-28T12:21:19.941Z,46.02
2018-09-28T12:22:19.806Z,46.5
2018-09-28T12:23:19.802Z,46.79
2018-09-28T12:24:19.990Z,46.48
2018-09-28T12:25:19.795Z,46.77
2018-09-28T12:26:19.791Z,46.77
2018-09-28T12:27:19.563Z,46.38
2018-09-28T12:28:19.786Z,46.58
2018-09-28T12:29:19.530Z,46.67
2018-09-28T12:30:19.869Z,47.34
2018-09-28T12:31:19.776Z,46.86
2018-09-28T12:32:19.776Z,46.77
2018-09-28T12:33:19.935Z,46.59
2018-09-28T12:34:19.768Z,45.64
2018-09-28T12:35:19.764Z,45.73
2018-09-28T12:36:19.958Z,45.25
2018-09-28T12:37:19.752Z,45.25
2018-09-28T12:38:20.049Z,45.54
2018-09-28T12:39:19.586Z,45.15
2018-09-28T12:40:19.748Z,44.87
2018-09-28T12:41:19.738Z,44.96
2018-09-28T12:42:19.954Z,44
2018-09-28T12:43:19.483Z,43.81
2018-09-28T12:44:20.000Z,43.04
2018-09-28T12:45:19.999Z,43.71
2018-09-28T12:46:19.723Z,44.29
2018-09-28T12:47:19.717Z,44.77
2018-09-28T12:48:19.900Z,44.38
2018-09-28T12:49:19.719Z,44.38
2018-09-28T12:50:19.831Z,44.1
2018-09-28T12:51:19.451Z,44.2
2018-09-28T12:52:19.700Z,43.71
2018-09-28T12:53:19.700Z,44.1
2018-09-28T12:54:19.776Z,44.02
2018-09-28T12:55:19.690Z,44.12
2018-09-28T12:56:19.845Z,43.84